EGCCLTBS

Guest
Details From EGCC - Manchester
To LTBS - Dalaman
Flight Number -
Tags Generated
Created
Modified
Stats Distance 1,634 nm / 3,026 km
Max Altitude 0 ft / 0 m
Waypoints 9
Social Downloads 5
Likes 0
Share VATSIM

Download

Looking for another format? Having issues loading an existing format? Contact us
Advertisement - Login to hide

Notes

Generated

Route

EGCC BRESK MAW06 OBEDI BLK SKJ81 NILVA DAL32 LTBS

ID Type Via Altitude Latitude Longitude Leg Dist Tot Dist Heading (true) Name
O EGCC APT - 0 ft / 0 m 53.33197˚ -2.31066˚ - 0 nm - -
BRESK FIX - 0 ft / 0 m 51.41667˚ 3.54833˚ 243 nm 243 nm 116° / 120° -
MAW06 FIX - 0 ft / 0 m 49.46660˚ 8.67067˚ 228 nm 471 nm 119° / 123° -
OBEDI FIX - 0 ft / 0 m 47.32790˚ 13.32975˚ 225 nm 697 nm 123° / 126° -
BLK NDB - 0 ft / 0 m 45.09526˚ 17.25794˚ 211 nm 908 nm 128° / 131° BANJA LUKA NDB
SKJ81 FIX - 0 ft / 0 m 42.21713˚ 21.76873˚ 261 nm 1170 nm 130° / 133° -
NILVA FIX - 0 ft / 0 m 39.32389˚ 25.68278˚ 248 nm 1418 nm 133° / 136° -
DAL32 FIX - 0 ft / 0 m 36.82597˚ 28.62903˚ 204 nm 1623 nm 136° / 138° -
O LTBS APT - 0 ft / 0 m 36.70016˚ 28.78809˚ 10 nm 1634 nm 135° / 135° -

Altitude Profile

Advertisement - Login to hide

Weather


0- 5 10 15 20 25 30 35+ Temperature / ° C

Clouds and Precipitation
Forecast for 2017-12-15 00:00 UTC. Updated 18 minutes ago

Ground ~20,000 ft ~40,000 ft Winds

EGCC

Details ICAO EGCC (MAN)
Name Manchester Intl
Region United Kingdom
Timezone Europe/London (UTC+0.0)
Stats Elevation 257 ft / 78 m (AMSL)
Location 53.347141° -2.283954°
Runways 2
Magnetic Variation 1.461° W

METAR

EGCC 141920Z AUTO 23005KT 9999 SCT025 BKN030 BKN037 03/02 Q0985 NOSIG

Decode

TAF

TAF AMD EGCC 141759Z 1418/1524 22012KT 9999 BKN009 BECMG 1418/1420 28010KT FEW025 TEMPO 1418/1504 6000 SHRA BKN010 PROB30 TEMPO 1422/1504 2000 SHRASN BKN004 BKN010CB BECMG 1500/1503 34009KT PROB30 TEMPO 1509/1517 35015G25KT PROB30 1522/1524 6000

Decode

Departure Runways

ID Width Length Bearing (true) Bearing (mag) Surface Threshold Offset Overrun Length
05L 151 ft / 46 m 9,981 ft / 3,042 m 50.99° 52.45° Asphalt 1,401 ft / 427 m 0 ft / 0 m
05R 151 ft / 46 m 9,952 ft / 3,033 m 50.97° 52.43° Asphalt 0 ft / 0 m 26 ft / 8 m
23L 151 ft / 46 m 9,952 ft / 3,033 m 231.00° 232.46° Asphalt 561 ft / 171 m 0 ft / 0 m
23R 151 ft / 46 m 9,981 ft / 3,042 m 231.02° 232.48° Asphalt 597 ft / 182 m 0 ft / 0 m

LTBS

Details ICAO LTBS (DLM)
Name DALAMAN
Region Turkey
Timezone Europe/Istanbul (UTC+3.0)
Stats Elevation 20 ft / 6 m (AMSL)
Location 36.713189° 28.792513°
Runways 1
Magnetic Variation 4.879° E

METAR

LTBS 141920Z 06004KT CAVOK 11/09 Q1018 NOSIG

Decode

TAF

Not found

Destination Runways

ID Width Length Bearing (true) Bearing (mag) Surface Threshold Offset Overrun Length
01 148 ft / 45 m 9,851 ft / 3,003 m 15.24° 10.36° Concrete 0 ft / 0 m 197 ft / 60 m
19 148 ft / 45 m 9,851 ft / 3,003 m 195.25° 190.37° Concrete 0 ft / 0 m 197 ft / 60 m

Popular Alternatives